createdAt,value
2019-06-20T00:00:36.228Z,2.43
2019-06-20T00:03:05.299Z,2.17
2019-06-20T00:05:34.055Z,2.70
2019-06-20T00:08:02.793Z,2.20
2019-06-20T00:10:31.477Z,2.53
2019-06-20T00:13:00.984Z,2.50
2019-06-20T00:15:29.777Z,3.83
2019-06-20T00:17:58.417Z,2.40
2019-06-20T00:20:27.037Z,3.13
2019-06-20T00:22:55.652Z,3.50
2019-06-20T00:25:24.384Z,3.63
2019-06-20T00:27:52.993Z,3.80
2019-06-20T00:30:21.839Z,5.87
2019-06-20T00:32:50.465Z,4.10
2019-06-20T00:35:19.144Z,3.53
2019-06-20T00:37:47.753Z,3.40
2019-06-20T00:40:17.000Z,3.70
2019-06-20T00:42:45.599Z,3.90
2019-06-20T00:45:14.544Z,3.80
2019-06-20T00:47:43.173Z,3.83
2019-06-20T00:50:12.220Z,3.10
2019-06-20T00:52:40.825Z,3.70
2019-06-20T00:55:10.083Z,4.07
2019-06-20T00:57:38.689Z,3.70
2019-06-20T01:00:08.433Z,3.77
2019-06-20T01:02:37.132Z,4.50
2019-06-20T01:05:06.352Z,3.90
2019-06-20T01:07:34.981Z,3.53
2019-06-20T01:10:05.596Z,3.20
2019-06-20T01:12:34.285Z,3.40
2019-06-20T01:15:03.715Z,2.97
2019-06-20T01:17:32.432Z,2.77
2019-06-20T01:20:01.109Z,2.67
2019-06-20T01:22:29.721Z,3.30
2019-06-20T01:24:58.417Z,2.20
2019-06-20T01:27:27.022Z,2.27
2019-06-20T01:29:55.782Z,2.53
2019-06-20T01:32:24.679Z,2.60
2019-06-20T01:34:53.434Z,2.63
2019-06-20T01:37:22.053Z,2.50
2019-06-20T01:39:52.432Z,2.00
2019-06-20T01:42:21.068Z,2.13
2019-06-20T01:44:49.676Z,2.37
2019-06-20T01:47:18.414Z,2.30
2019-06-20T01:49:47.019Z,2.43
2019-06-20T01:52:15.630Z,2.20
2019-06-20T01:54:44.326Z,2.47
2019-06-20T01:57:12.931Z,2.23
2019-06-20T01:59:41.532Z,3.17
2019-06-20T02:02:10.263Z,2.60
2019-06-20T02:04:39.072Z,2.80
2019-06-20T02:07:07.750Z,2.33
2019-06-20T02:09:36.578Z,3.07
2019-06-20T02:12:05.409Z,2.30
2019-06-20T02:14:34.029Z,3.10
2019-06-20T02:17:02.885Z,2.70
2019-06-20T02:19:31.538Z,3.37
2019-06-20T02:22:00.431Z,3.33
2019-06-20T02:24:29.501Z,3.33
2019-06-20T02:26:58.108Z,3.13
2019-06-20T02:29:26.795Z,3.07
2019-06-20T02:31:55.492Z,3.50
2019-06-20T02:34:24.105Z,3.00
2019-06-20T02:36:52.781Z,2.93
2019-06-20T02:39:21.435Z,3.33
2019-06-20T02:41:50.114Z,3.80
2019-06-20T02:44:29.999Z,3.30
2019-06-20T02:46:49.095Z,3.30
2019-06-20T02:49:17.714Z,3.20
2019-06-20T02:51:46.598Z,3.53
2019-06-20T02:54:15.388Z,3.57
2019-06-20T02:56:44.105Z,4.23
2019-06-20T02:59:16.563Z,3.33
2019-06-20T03:01:45.197Z,3.60
2019-06-20T03:04:13.802Z,3.53
2019-06-20T03:06:42.685Z,3.50
2019-06-20T03:09:11.385Z,3.90
2019-06-20T03:11:40.144Z,3.90
2019-06-20T03:14:08.889Z,4.37
2019-06-20T03:16:37.657Z,3.80
2019-06-20T03:19:06.294Z,4.20
2019-06-20T03:21:34.952Z,3.77
2019-06-20T03:24:03.761Z,4.60
2019-06-20T03:26:32.418Z,4.20
2019-06-20T03:29:01.021Z,4.20
2019-06-20T03:31:30.021Z,4.80
2019-06-20T03:33:58.626Z,3.90
2019-06-20T03:36:27.238Z,4.67
2019-06-20T03:38:55.928Z,4.07
2019-06-20T03:41:24.549Z,3.90
2019-06-20T03:43:53.230Z,4.50
2019-06-20T03:46:21.889Z,4.00
2019-06-20T03:48:50.503Z,3.63
2019-06-20T03:51:19.140Z,3.67
2019-06-20T03:53:47.943Z,4.10
2019-06-20T03:56:18.255Z,4.47
2019-06-20T03:58:46.873Z,3.37
2019-06-20T04:01:15.574Z,3.73
2019-06-20T04:03:44.192Z,3.97
2019-06-20T04:06:12.814Z,3.57
2019-06-20T04:08:41.452Z,3.50
2019-06-20T04:11:10.068Z,2.97
2019-06-20T04:13:38.750Z,3.43
2019-06-20T04:16:09.070Z,3.00
2019-06-20T04:18:38.081Z,3.57
2019-06-20T04:21:06.768Z,2.50
2019-06-20T04:23:35.582Z,2.73
2019-06-20T04:26:04.291Z,2.60
2019-06-20T04:28:32.924Z,3.40
2019-06-20T04:31:01.623Z,2.90
2019-06-20T04:33:30.232Z,2.40
2019-06-20T04:35:58.849Z,2.73
2019-06-20T04:38:27.473Z,2.67
2019-06-20T04:40:56.081Z,2.53
2019-06-20T04:43:24.689Z,2.40
2019-06-20T04:45:55.045Z,2.70
2019-06-20T04:48:23.653Z,2.60
2019-06-20T04:50:52.264Z,2.77
2019-06-20T04:53:20.943Z,2.60
2019-06-20T04:55:49.608Z,2.70
2019-06-20T04:58:18.226Z,2.20
2019-06-20T05:00:46.855Z,2.40
2019-06-20T05:03:15.458Z,2.97
2019-06-20T05:05:44.097Z,2.50
2019-06-20T05:08:12.785Z,2.30
2019-06-20T05:10:41.387Z,2.67
2019-06-20T05:13:09.990Z,2.47
2019-06-20T05:15:52.218Z,2.00
2019-06-20T05:18:08.954Z,2.57
2019-06-20T05:20:37.637Z,2.40
2019-06-20T05:23:06.389Z,2.53
2019-06-20T05:25:35.415Z,3.10
2019-06-20T05:28:04.094Z,3.90
2019-06-20T05:30:32.813Z,3.40
2019-06-20T05:33:01.504Z,3.67
2019-06-20T05:35:30.113Z,3.40
2019-06-20T05:37:58.737Z,3.73
2019-06-20T05:40:27.497Z,3.37
2019-06-20T05:42:56.116Z,3.60
2019-06-20T05:45:24.765Z,3.80
2019-06-20T05:47:53.434Z,4.03
2019-06-20T05:50:22.038Z,3.60
2019-06-20T05:52:50.661Z,4.13
2019-06-20T05:55:19.406Z,3.80
2019-06-20T05:57:48.170Z,3.63
2019-06-20T06:00:17.032Z,3.20
2019-06-20T06:02:45.654Z,4.33
2019-06-20T06:05:14.768Z,4.17
2019-06-20T06:08:02.760Z,3.93
2019-06-20T06:10:31.470Z,3.83
2019-06-20T06:13:00.158Z,4.03
2019-06-20T06:15:28.915Z,4.00
2019-06-20T06:17:57.529Z,3.93
2019-06-20T06:20:26.217Z,3.50
2019-06-20T06:22:54.877Z,3.70
2019-06-20T06:25:23.486Z,3.97
2019-06-20T06:27:52.355Z,3.87
2019-06-20T06:30:22.267Z,3.83
2019-06-20T06:32:51.020Z,3.87
2019-06-20T06:35:19.760Z,4.70
2019-06-20T06:37:48.592Z,4.30
2019-06-20T06:40:17.866Z,4.60
2019-06-20T06:42:46.644Z,5.00
2019-06-20T06:45:15.800Z,5.20
2019-06-20T06:47:44.507Z,4.70
2019-06-20T06:50:14.441Z,4.07
2019-06-20T06:52:43.308Z,3.93
2019-06-20T06:55:13.422Z,4.97
2019-06-20T06:57:42.185Z,4.37
2019-06-20T07:00:12.444Z,4.90
2019-06-20T07:02:41.286Z,5.00
2019-06-20T07:05:10.493Z,4.40
2019-06-20T07:07:39.205Z,4.70
2019-06-20T07:10:09.067Z,4.20
2019-06-20T07:12:37.869Z,4.90
2019-06-20T07:15:08.049Z,4.23
2019-06-20T07:17:36.988Z,4.10
2019-06-20T07:20:06.995Z,4.30
2019-06-20T07:22:36.253Z,9.80
2019-06-20T07:25:07.327Z,4.93
2019-06-20T07:27:36.660Z,5.40
2019-06-20T07:30:10.468Z,4.30
2019-06-20T07:32:39.124Z,3.83
2019-06-20T07:35:09.839Z,3.90
2019-06-20T07:37:38.734Z,3.53
2019-06-20T07:40:08.607Z,3.63
2019-06-20T07:42:37.523Z,4.20
2019-06-20T07:45:11.005Z,39.23
2019-06-20T07:47:39.853Z,3.93
2019-06-20T07:50:09.420Z,9.00
2019-06-20T07:52:38.350Z,4.27
2019-06-20T07:55:07.916Z,4.37
2019-06-20T07:57:36.834Z,4.50
2019-06-20T08:00:11.216Z,5.37
2019-06-20T08:02:40.043Z,4.80
2019-06-20T08:05:10.897Z,4.90
2019-06-20T08:07:39.674Z,4.27
2019-06-20T08:10:10.625Z,4.10
2019-06-20T08:12:39.633Z,4.23
2019-06-20T08:15:14.864Z,4.23
2019-06-20T08:17:39.691Z,4.17
2019-06-20T08:20:10.828Z,4.97
2019-06-20T08:22:39.873Z,4.10
2019-06-20T08:25:09.818Z,4.07
2019-06-20T08:27:54.190Z,4.50
2019-06-20T08:30:28.414Z,3.43
2019-06-20T08:32:59.113Z,4.20
2019-06-20T08:35:29.845Z,5.33
2019-06-20T08:37:59.687Z,4.50
2019-06-20T08:40:31.199Z,3.70
2019-06-20T08:43:00.237Z,4.80
2019-06-20T08:45:32.225Z,2.50
2019-06-20T08:48:02.436Z,2.23
2019-06-20T08:50:31.591Z,2.10
2019-06-20T08:53:01.456Z,2.37
2019-06-20T08:55:30.555Z,5.27
2019-06-20T08:58:01.020Z,2.47
2019-06-20T09:00:30.840Z,3.00
2019-06-20T09:03:00.456Z,2.33
2019-06-20T09:05:30.898Z,1.80
2019-06-20T09:10:33.168Z,2.10
2019-06-20T09:13:03.697Z,1.93
2019-06-20T09:15:32.698Z,2.27
2019-06-20T09:18:02.755Z,2.20
2019-06-20T09:20:31.899Z,2.90
2019-06-20T09:23:01.078Z,2.30
2019-06-20T09:25:30.078Z,2.50
2019-06-20T09:28:00.294Z,2.40
2019-06-20T09:30:29.580Z,2.60
2019-06-20T09:32:58.356Z,2.97
2019-06-20T09:35:27.227Z,2.23
2019-06-20T09:37:57.066Z,2.73
2019-06-20T09:40:26.116Z,2.70
2019-06-20T09:42:54.920Z,2.50
2019-06-20T09:45:23.885Z,2.80
2019-06-20T09:47:53.529Z,2.70
2019-06-20T09:50:22.878Z,2.10
2019-06-20T09:52:53.165Z,2.27
2019-06-20T09:55:22.114Z,1.97
2019-06-20T09:57:51.918Z,2.30
2019-06-20T10:00:23.878Z,2.67
2019-06-20T10:02:55.396Z,2.10
2019-06-20T10:05:23.314Z,2.30
2019-06-20T10:07:52.383Z,2.73
2019-06-20T10:10:24.249Z,2.70
2019-06-20T10:12:53.724Z,2.60
2019-06-20T10:15:24.823Z,2.50
2019-06-20T10:17:54.493Z,5.80
2019-06-20T10:20:24.253Z,3.20
2019-06-20T10:22:53.584Z,2.80
2019-06-20T10:25:23.091Z,2.40
2019-06-20T10:27:53.479Z,2.40
2019-06-20T10:30:25.240Z,2.13
2019-06-20T10:32:54.051Z,1.90
2019-06-20T10:35:23.273Z,2.30
2019-06-20T10:37:53.023Z,2.40
2019-06-20T10:40:23.973Z,2.50
2019-06-20T10:42:53.061Z,3.60
2019-06-20T10:45:23.760Z,3.17
2019-06-20T10:47:54.271Z,2.30
2019-06-20T10:50:23.581Z,2.70
2019-06-20T10:52:53.034Z,3.80
2019-06-20T10:55:21.974Z,2.00
2019-06-20T10:57:51.948Z,2.30
2019-06-20T11:00:30.664Z,2.10
2019-06-20T11:02:53.171Z,2.47
2019-06-20T11:05:22.211Z,2.57
2019-06-20T11:07:51.297Z,2.47
2019-06-20T11:10:21.852Z,2.40
2019-06-20T11:12:55.655Z,2.17
2019-06-20T11:15:22.752Z,1.90
2019-06-20T11:17:51.502Z,2.30
2019-06-20T11:20:20.364Z,2.37
2019-06-20T11:22:49.072Z,2.23
2019-06-20T11:25:19.626Z,2.40
2019-06-20T11:27:48.423Z,2.50
2019-06-20T11:30:20.263Z,2.37
2019-06-20T11:32:48.975Z,2.60
2019-06-20T11:35:17.821Z,1.70
2019-06-20T11:37:47.301Z,2.60
2019-06-20T11:40:16.417Z,2.83
2019-06-20T11:42:45.132Z,2.27
2019-06-20T11:45:15.863Z,2.10
2019-06-20T11:47:44.592Z,2.13
2019-06-20T11:50:13.725Z,2.00
2019-06-20T11:52:45.620Z,2.60
2019-06-20T11:55:14.899Z,2.47
2019-06-20T11:57:43.762Z,3.40
2019-06-20T12:00:14.711Z,2.37
2019-06-20T12:02:44.360Z,1.90
2019-06-20T12:05:14.784Z,2.00
2019-06-20T12:07:45.329Z,2.07
2019-06-20T12:10:14.822Z,1.87
2019-06-20T12:12:44.729Z,2.00
2019-06-20T12:15:13.917Z,2.40
2019-06-20T12:17:43.306Z,1.83
2019-06-20T12:20:14.763Z,1.53
2019-06-20T12:22:44.946Z,2.23
2019-06-20T12:25:14.507Z,1.47
2019-06-20T12:27:43.348Z,1.60
2019-06-20T12:30:15.168Z,1.57
2019-06-20T12:32:44.738Z,1.63
2019-06-20T12:35:14.127Z,2.80
2019-06-20T12:37:42.969Z,2.40
2019-06-20T12:40:12.242Z,2.10
2019-06-20T12:42:41.764Z,2.40
2019-06-20T12:45:11.740Z,1.73
2019-06-20T12:47:41.779Z,1.90
2019-06-20T12:50:11.206Z,2.13
2019-06-20T12:52:41.336Z,3.70
2019-06-20T12:55:12.111Z,2.40
2019-06-20T12:57:42.099Z,2.50
2019-06-20T13:00:12.463Z,2.20
2019-06-20T13:02:41.952Z,2.20
2019-06-20T13:05:13.445Z,2.13
2019-06-20T13:07:42.424Z,1.90
2019-06-20T13:10:12.216Z,2.80
2019-06-20T13:12:43.084Z,2.30
2019-06-20T13:15:13.392Z,2.30
2019-06-20T13:17:43.621Z,2.40
2019-06-20T13:20:14.396Z,2.83
2019-06-20T13:22:44.651Z,3.43
2019-06-20T13:25:14.209Z,40.30
2019-06-20T13:27:43.461Z,6.40
2019-06-20T13:30:14.361Z,3.00
2019-06-20T13:32:43.816Z,3.00
2019-06-20T13:35:13.888Z,2.63
2019-06-20T13:37:43.499Z,2.60
2019-06-20T13:40:14.067Z,2.90
2019-06-20T13:42:44.222Z,2.60
2019-06-20T13:45:21.741Z,3.00
2019-06-20T13:47:50.701Z,3.17
2019-06-20T13:50:19.956Z,2.70
2019-06-20T13:52:50.620Z,2.70
2019-06-20T13:55:19.229Z,3.63
2019-06-20T13:57:49.190Z,3.40
2019-06-20T14:00:20.699Z,3.10
2019-06-20T14:02:51.111Z,3.90
2019-06-20T14:05:20.817Z,4.47
2019-06-20T14:07:53.272Z,4.00
2019-06-20T14:10:20.794Z,3.20
2019-06-20T14:12:49.488Z,3.77
2019-06-20T14:15:19.552Z,2.77
2019-06-20T14:17:49.738Z,2.47
2019-06-20T14:20:19.587Z,2.30
2019-06-20T14:22:49.424Z,2.57
2019-06-20T14:25:19.632Z,4.17
2019-06-20T14:27:49.034Z,3.80
2019-06-20T14:30:19.571Z,3.00
2019-06-20T14:32:49.365Z,3.50
2019-06-20T14:35:19.027Z,4.00
2019-06-20T14:37:49.277Z,3.17
2019-06-20T14:40:18.771Z,4.00
2019-06-20T14:42:48.007Z,3.97
2019-06-20T14:45:16.886Z,3.80
2019-06-20T14:47:45.520Z,4.50
2019-06-20T14:50:15.089Z,4.60
2019-06-20T14:52:44.576Z,4.10
2019-06-20T14:55:14.864Z,4.30
2019-06-20T14:57:44.897Z,4.03
2019-06-20T15:00:14.743Z,5.00
2019-06-20T15:02:43.778Z,4.90
2019-06-20T15:05:18.426Z,4.67
2019-06-20T15:07:49.246Z,5.00
2019-06-20T15:10:18.907Z,4.83
2019-06-20T15:12:49.457Z,5.10
2019-06-20T15:15:18.415Z,5.17
2019-06-20T15:17:49.897Z,4.87
2019-06-20T15:20:18.220Z,4.80
2019-06-20T15:22:47.426Z,5.10
2019-06-20T15:25:17.682Z,4.27
2019-06-20T15:27:48.085Z,3.80
2019-06-20T15:30:17.205Z,3.70
2019-06-20T15:33:01.120Z,3.50
2019-06-20T15:35:16.606Z,8.13
2019-06-20T15:37:47.656Z,6.10
2019-06-20T15:40:16.619Z,10.67
2019-06-20T15:42:45.383Z,10.30
2019-06-20T15:45:15.479Z,3.87
2019-06-20T15:47:44.177Z,2.93
2019-06-20T15:50:13.648Z,3.07
2019-06-20T15:52:42.414Z,2.90
2019-06-20T15:55:11.671Z,3.40
2019-06-20T15:57:40.830Z,3.20
2019-06-20T16:00:13.326Z,3.27
2019-06-20T16:02:42.028Z,3.03
2019-06-20T16:05:11.963Z,3.03
2019-06-20T16:07:40.617Z,2.43
2019-06-20T16:10:10.146Z,6.67
2019-06-20T16:12:39.045Z,2.70
2019-06-20T16:15:09.895Z,2.03
2019-06-20T16:17:38.551Z,2.30
2019-06-20T16:20:07.907Z,2.40
2019-06-20T16:22:36.575Z,2.40
2019-06-20T16:25:06.879Z,3.10
2019-06-20T16:27:35.703Z,2.63
2019-06-20T16:30:06.741Z,3.13
2019-06-20T16:32:35.435Z,2.73
2019-06-20T16:35:08.524Z,2.87
2019-06-20T16:37:37.448Z,2.73
2019-06-20T16:40:09.313Z,3.10
2019-06-20T16:42:38.116Z,2.20
2019-06-20T16:45:08.457Z,2.83
2019-06-20T16:47:37.292Z,3.00
2019-06-20T16:50:08.165Z,3.50
2019-06-20T16:52:36.964Z,2.87
2019-06-20T16:55:06.918Z,2.60
2019-06-20T16:57:35.643Z,2.63
2019-06-20T17:00:07.395Z,2.43
2019-06-20T17:02:36.344Z,2.30
2019-06-20T17:05:06.987Z,2.50
2019-06-20T17:07:35.782Z,2.53
2019-06-20T17:10:06.398Z,3.03
2019-06-20T17:12:35.120Z,2.70
2019-06-20T17:15:05.240Z,2.97
2019-06-20T17:17:33.866Z,5.67
2019-06-20T17:20:02.587Z,3.20
2019-06-20T17:22:31.386Z,6.90
2019-06-20T17:25:01.573Z,3.30
2019-06-20T17:27:30.306Z,3.55
2019-06-20T17:29:59.129Z,3.10
2019-06-20T17:32:27.816Z,3.40
2019-06-20T17:34:56.512Z,3.77
2019-06-20T17:37:25.322Z,3.53
2019-06-20T17:39:54.015Z,3.50
2019-06-20T17:42:22.669Z,4.63
2019-06-20T17:44:51.307Z,3.03
2019-06-20T17:47:19.935Z,3.47
2019-06-20T17:49:48.597Z,3.23
2019-06-20T17:52:17.300Z,3.17
2019-06-20T17:54:46.104Z,3.10
2019-06-20T17:57:14.719Z,3.27
2019-06-20T17:59:43.365Z,3.30
2019-06-20T18:02:11.985Z,3.50
2019-06-20T18:04:40.731Z,2.90
2019-06-20T18:07:09.461Z,3.30
2019-06-20T18:09:38.452Z,3.67
2019-06-20T18:12:07.568Z,3.60
2019-06-20T18:14:36.339Z,3.30
2019-06-20T18:17:05.353Z,3.57
2019-06-20T18:19:34.085Z,3.50
2019-06-20T18:22:02.915Z,3.17
2019-06-20T18:24:31.800Z,3.40
2019-06-20T18:27:00.511Z,3.53
2019-06-20T18:29:29.380Z,3.10
2019-06-20T18:31:58.148Z,3.60
2019-06-20T18:34:30.285Z,4.40
2019-06-20T18:36:57.398Z,4.63
2019-06-20T18:39:26.140Z,3.67
2019-06-20T18:41:54.944Z,3.87
2019-06-20T18:44:23.707Z,3.47
2019-06-20T18:46:52.641Z,3.90
2019-06-20T18:49:21.416Z,4.50
2019-06-20T18:51:50.199Z,3.60
2019-06-20T18:54:18.977Z,3.60
2019-06-20T18:56:47.607Z,3.27
2019-06-20T18:59:16.232Z,3.80
2019-06-20T19:01:45.044Z,4.00
2019-06-20T19:04:13.659Z,4.40
2019-06-20T19:06:42.730Z,4.23
2019-06-20T19:09:11.422Z,4.57
2019-06-20T19:11:40.132Z,4.80
2019-06-20T19:14:12.459Z,4.93
2019-06-20T19:16:39.291Z,5.00
2019-06-20T19:19:08.010Z,4.93
2019-06-20T19:21:36.663Z,4.30
2019-06-20T19:24:05.796Z,7.60
2019-06-20T19:26:34.487Z,6.00
2019-06-20T19:29:03.183Z,4.80
2019-06-20T19:31:31.906Z,5.00
2019-06-20T19:34:00.663Z,5.37
2019-06-20T19:36:29.614Z,5.10
2019-06-20T19:38:58.237Z,5.17
2019-06-20T19:41:27.137Z,4.87
2019-06-20T19:43:55.884Z,5.10
2019-06-20T19:46:25.001Z,4.70
2019-06-20T19:48:53.879Z,5.10
2019-06-20T19:51:22.573Z,5.80
2019-06-20T19:53:51.341Z,4.53
2019-06-20T19:56:20.276Z,5.17
2019-06-20T19:58:49.208Z,5.20
2019-06-20T20:01:17.939Z,5.43
2019-06-20T20:03:46.728Z,4.87
2019-06-20T20:06:15.488Z,5.43
2019-06-20T20:08:44.386Z,4.83
2019-06-20T20:11:13.319Z,5.07
2019-06-20T20:13:42.007Z,4.73
2019-06-20T20:16:10.651Z,4.40
2019-06-20T20:18:39.355Z,3.83
2019-06-20T20:21:08.096Z,4.37
2019-06-20T20:23:37.170Z,4.40
2019-06-20T20:26:08.646Z,6.57
2019-06-20T20:28:36.283Z,5.20
2019-06-20T20:31:05.063Z,5.30
2019-06-20T20:33:33.737Z,6.10
2019-06-20T20:36:02.499Z,5.70
2019-06-20T20:38:33.845Z,5.10
2019-06-20T20:41:02.642Z,5.67
2019-06-20T20:43:31.535Z,5.07
2019-06-20T20:46:00.369Z,6.17
2019-06-20T20:48:30.773Z,5.03
2019-06-20T20:50:59.486Z,5.10
2019-06-20T20:53:28.260Z,5.90
2019-06-20T20:55:57.040Z,5.57
2019-06-20T20:58:25.899Z,5.63
2019-06-20T21:01:03.190Z,5.77
2019-06-20T21:03:32.219Z,5.67
2019-06-20T21:06:01.164Z,5.07
2019-06-20T21:08:32.754Z,5.50
2019-06-20T21:11:00.242Z,5.73
2019-06-20T21:13:29.027Z,6.00
2019-06-20T21:15:57.677Z,5.17
2019-06-20T21:18:26.415Z,6.70
2019-06-20T21:20:55.113Z,5.93
2019-06-20T21:23:23.824Z,6.17
2019-06-20T21:25:52.483Z,5.43
2019-06-20T21:28:21.217Z,5.30
2019-06-20T21:30:49.890Z,6.00
2019-06-20T21:33:18.620Z,5.77
2019-06-20T21:35:47.367Z,6.63
2019-06-20T21:38:15.992Z,5.17
2019-06-20T21:40:45.198Z,5.67
2019-06-20T21:43:14.071Z,7.07
2019-06-20T21:45:42.768Z,9.80
2019-06-20T21:48:11.443Z,8.63
2019-06-20T21:50:40.222Z,9.77
2019-06-20T21:53:08.947Z,10.27
2019-06-20T21:55:37.579Z,11.00
2019-06-20T21:58:06.186Z,9.70
2019-06-20T22:00:39.393Z,9.77
2019-06-20T22:03:09.027Z,11.33
2019-06-20T22:05:38.228Z,11.70
2019-06-20T22:08:07.010Z,11.27
2019-06-20T22:10:35.897Z,12.07
2019-06-20T22:13:04.836Z,12.50
2019-06-20T22:15:33.852Z,13.63
2019-06-20T22:18:02.569Z,13.57
2019-06-20T22:20:31.353Z,18.73
2019-06-20T22:23:00.188Z,13.90
2019-06-20T22:25:29.149Z,13.23
2019-06-20T22:27:57.921Z,14.53
2019-06-20T22:30:44.013Z,16.70
2019-06-20T22:33:13.145Z,15.77
2019-06-20T22:35:45.770Z,13.00
2019-06-20T22:38:14.342Z,15.40
2019-06-20T22:40:43.142Z,15.20
2019-06-20T22:43:11.916Z,16.60
2019-06-20T22:45:40.720Z,14.77
2019-06-20T22:48:09.564Z,18.37
2019-06-20T22:50:38.213Z,18.67
2019-06-20T22:53:06.979Z,19.00
2019-06-20T22:55:35.983Z,18.33
2019-06-20T22:58:06.116Z,18.73
2019-06-20T23:00:35.553Z,17.47
2019-06-20T23:03:05.334Z,16.60
2019-06-20T23:05:34.376Z,17.63
2019-06-20T23:08:03.291Z,16.50
2019-06-20T23:10:32.136Z,17.57
2019-06-20T23:13:00.853Z,17.90
2019-06-20T23:15:29.543Z,16.93
2019-06-20T23:17:58.214Z,16.10
2019-06-20T23:20:27.154Z,14.80
2019-06-20T23:22:55.847Z,14.10
2019-06-20T23:25:24.563Z,14.30
2019-06-20T23:27:53.376Z,15.70
2019-06-20T23:30:22.444Z,17.20
2019-06-20T23:32:51.279Z,15.00
2019-06-20T23:35:19.999Z,15.47
2019-06-20T23:37:48.710Z,13.63
2019-06-20T23:40:19.990Z,15.40
2019-06-20T23:42:48.752Z,14.70
2019-06-20T23:45:17.736Z,14.50
2019-06-20T23:47:46.530Z,16.07
2019-06-20T23:50:19.126Z,15.20
2019-06-20T23:53:02.738Z,14.63
2019-06-20T23:55:32.055Z,15.30
2019-06-20T23:58:01.277Z,15.50
